createdAt,value
2019-02-15T00:00:10.270Z,100020.77
2019-02-15T00:01:18.495Z,100021.77
2019-02-15T00:02:19.917Z,100012.10
2019-02-15T00:03:21.483Z,100011.11
2019-02-15T00:04:23.118Z,100014.77
2019-02-15T00:05:24.492Z,100017.44
2019-02-15T00:06:25.768Z,100017.44
2019-02-15T00:07:27.255Z,100008.73
2019-02-15T00:08:28.759Z,100012.73
2019-02-15T00:09:30.015Z,100012.25
2019-02-15T00:10:31.648Z,100008.73
2019-02-15T00:11:33.088Z,100009.10
2019-02-15T00:12:34.635Z,100007.25
2019-02-15T00:13:36.038Z,100007.25
2019-02-15T00:14:44.252Z,100008.25
2019-02-15T00:15:45.591Z,100013.44
2019-02-15T00:16:47.056Z,100013.44
2019-02-15T00:17:50.571Z,100012.92
2019-02-15T00:19:02.672Z,100011.59
2019-02-15T00:20:06.854Z,100011.44
2019-02-15T00:21:13.256Z,100018.11
2019-02-15T00:22:14.584Z,100015.44
2019-02-15T00:23:16.127Z,100016.32
2019-02-15T00:24:17.387Z,100010.63
2019-02-15T00:25:18.821Z,100016.32
2019-02-15T00:26:20.337Z,100013.14
2019-02-15T00:27:21.629Z,100013.14
2019-02-15T00:28:22.873Z,100006.47
2019-02-15T00:29:24.385Z,100008.66
2019-02-15T00:30:25.863Z,100008.14
2019-02-15T00:31:27.210Z,100010.66
2019-02-15T00:32:28.653Z,100017.33
2019-02-15T00:33:29.989Z,100019.51
2019-02-15T00:34:31.501Z,100008.84
2019-02-15T00:35:32.986Z,100008.84
2019-02-15T00:36:34.216Z,100007.84
2019-02-15T00:37:35.777Z,100005.66
2019-02-15T00:38:37.237Z,100012.84
2019-02-15T00:39:38.513Z,100012.84
2019-02-15T00:40:40.111Z,100015.52
2019-02-15T00:41:41.581Z,100013.18
2019-02-15T00:42:43.943Z,100014.66
2019-02-15T00:43:45.284Z,100012.84
2019-02-15T00:44:46.785Z,100015.52
2019-02-15T00:45:50.195Z,100015.52
2019-02-15T00:47:02.705Z,100011.52
2019-02-15T00:48:06.285Z,100011.52
2019-02-15T00:49:09.248Z,100020.84
2019-02-15T00:50:21.577Z,100014.17
2019-02-15T00:51:43.137Z,100015.17
2019-02-15T00:52:52.204Z,100014.33
2019-02-15T00:53:55.492Z,100014.47
2019-02-15T00:55:15.188Z,100012.32
2019-02-15T00:56:33.778Z,100013.47
2019-02-15T00:57:37.326Z,100013.99
2019-02-15T00:58:46.684Z,100014.98
2019-02-15T01:00:01.854Z,100011.80
2019-02-15T01:01:08.386Z,100003.44
2019-02-15T01:02:14.396Z,100009.14
2019-02-15T01:03:17.578Z,100005.66
2019-02-15T01:04:23.819Z,100005.66
2019-02-15T01:05:45.199Z,100010.98
2019-02-15T01:06:54.383Z,100004.77
2019-02-15T01:08:12.734Z,100000.77
2019-02-15T01:09:18.833Z,100001.29
2019-02-15T01:10:28.273Z,99998.25
2019-02-15T01:11:31.488Z,100000.10
2019-02-15T01:12:47.054Z,100005.92
2019-02-15T01:13:48.438Z,100005.92
2019-02-15T01:14:49.876Z,100008.10
2019-02-15T01:15:51.286Z,100008.10
2019-02-15T01:16:52.673Z,100006.43
2019-02-15T01:17:54.175Z,100000.73
2019-02-15T01:18:57.992Z,99998.06
2019-02-15T01:19:59.434Z,99998.06
2019-02-15T01:21:01.310Z,99992.73
2019-02-15T01:22:02.569Z,99987.91
2019-02-15T01:23:04.087Z,99989.73
2019-02-15T01:24:05.465Z,99989.73
2019-02-15T01:25:07.144Z,99985.40
2019-02-15T01:26:13.355Z,99984.06
2019-02-15T01:27:22.823Z,99973.41
2019-02-15T01:28:29.045Z,99974.06
2019-02-15T01:29:32.376Z,99970.40
2019-02-15T01:30:55.281Z,99971.73
2019-02-15T01:32:16.631Z,99970.22
2019-02-15T01:33:19.960Z,99969.36
2019-02-15T01:34:32.209Z,99960.03
2019-02-15T01:35:38.225Z,99960.03
2019-02-15T01:37:00.599Z,99956.55
2019-02-15T01:38:06.671Z,99957.73
2019-02-15T01:39:10.542Z,99955.06
2019-02-15T01:40:16.877Z,99955.70
2019-02-15T01:41:20.127Z,99955.70
2019-02-15T01:42:26.398Z,99961.73
2019-02-15T01:43:39.877Z,99961.73
2019-02-15T01:44:43.496Z,99960.40
2019-02-15T01:46:03.634Z,99960.03
2019-02-15T01:47:07.055Z,99963.88
2019-02-15T01:48:08.468Z,99963.88
2019-02-15T01:49:09.822Z,99962.22
2019-02-15T01:50:11.384Z,99961.36
2019-02-15T01:51:13.045Z,99961.36
2019-02-15T01:52:14.364Z,99963.55
2019-02-15T01:53:15.957Z,99961.22
2019-02-15T01:54:17.180Z,99965.22
2019-02-15T01:55:18.678Z,99966.88
2019-02-15T01:56:20.155Z,99959.73
2019-02-15T01:57:21.582Z,99959.73
2019-02-15T01:58:23.012Z,99960.41
2019-02-15T01:59:24.455Z,99959.41
2019-02-15T02:00:27.831Z,99956.26
2019-02-15T02:01:29.354Z,99956.26
2019-02-15T02:02:31.686Z,99967.92
2019-02-15T02:03:34.159Z,99959.77
2019-02-15T02:04:35.640Z,99962.77
2019-02-15T02:05:37.083Z,99961.11
2019-02-15T02:06:38.356Z,99953.11
2019-02-15T02:07:40.333Z,99953.11
2019-02-15T02:08:41.893Z,99961.77
2019-02-15T02:09:43.245Z,99957.78
2019-02-15T02:10:45.787Z,99959.11
2019-02-15T02:11:47.362Z,99957.78
2019-02-15T02:12:48.755Z,99957.44
2019-02-15T02:13:50.443Z,99960.92
2019-02-15T02:14:52.013Z,99958.44
2019-02-15T02:15:53.675Z,99961.11
2019-02-15T02:16:55.243Z,99956.26
2019-02-15T02:17:56.729Z,99951.41
2019-02-15T02:18:58.299Z,99951.41
2019-02-15T02:19:59.833Z,99946.59
2019-02-15T02:21:01.431Z,99946.59
2019-02-15T02:22:02.965Z,99942.08
2019-02-15T02:23:04.589Z,99948.26
2019-02-15T02:24:06.052Z,99949.73
2019-02-15T02:25:07.415Z,99953.59
2019-02-15T02:26:08.931Z,99947.08
2019-02-15T02:27:10.368Z,99953.26
2019-02-15T02:28:12.176Z,99957.73
2019-02-15T02:29:13.856Z,99953.26
2019-02-15T02:30:15.199Z,99950.73
2019-02-15T02:31:17.204Z,99951.73
2019-02-15T02:32:18.675Z,99951.73
2019-02-15T02:33:20.060Z,99953.22
2019-02-15T02:34:21.982Z,99954.55
2019-02-15T02:35:23.335Z,99953.73
2019-02-15T02:36:48.430Z,99958.22
2019-02-15T02:37:50.891Z,99953.03
2019-02-15T02:38:52.342Z,99952.55
2019-02-15T02:39:53.711Z,99948.22
2019-02-15T02:40:55.124Z,99952.21
2019-02-15T02:41:56.586Z,99949.03
2019-02-15T02:42:58.170Z,99949.03
2019-02-15T02:44:00.130Z,99938.88
2019-02-15T02:45:02.359Z,99945.37
2019-02-15T02:46:04.487Z,99938.70
2019-02-15T02:47:05.815Z,99938.70
2019-02-15T02:48:07.354Z,99937.37
2019-02-15T02:49:08.740Z,99933.37
2019-02-15T02:50:10.088Z,99930.38
2019-02-15T02:51:11.491Z,99921.05
2019-02-15T02:52:13.109Z,99921.05
2019-02-15T02:53:14.715Z,99914.38
2019-02-15T02:54:16.080Z,99907.38
2019-02-15T02:55:17.432Z,99902.53
2019-02-15T02:56:18.893Z,99894.20
2019-02-15T02:57:20.177Z,99897.71
2019-02-15T02:58:21.580Z,99897.20
2019-02-15T02:59:23.089Z,99897.71
2019-02-15T03:00:33.294Z,99891.53
2019-02-15T03:01:28.845Z,99883.53
2019-02-15T03:02:30.451Z,99885.72
2019-02-15T03:03:31.923Z,99885.72
2019-02-15T03:04:33.425Z,99880.87
2019-02-15T03:05:35.001Z,99881.72
2019-02-15T03:06:36.377Z,99879.05
2019-02-15T03:07:37.631Z,99879.05
2019-02-15T03:08:39.168Z,99889.71
2019-02-15T03:09:42.172Z,99889.71
2019-02-15T03:10:43.535Z,99899.38
2019-02-15T03:11:45.301Z,99903.86
2019-02-15T03:12:46.581Z,99908.86
2019-02-15T03:13:47.965Z,99911.04
2019-02-15T03:14:51.623Z,99914.70
2019-02-15T03:15:53.959Z,99916.52
2019-02-15T03:16:55.452Z,99922.70
2019-02-15T03:17:57.151Z,99927.52
2019-02-15T03:18:58.562Z,99925.85
2019-02-15T03:20:00.044Z,99929.00
2019-02-15T03:21:01.554Z,99930.19
2019-02-15T03:22:03.975Z,99935.52
2019-02-15T03:23:05.442Z,99932.37
2019-02-15T03:24:06.981Z,99930.70
2019-02-15T03:25:08.398Z,99929.00
2019-02-15T03:26:10.014Z,99925.00
2019-02-15T03:27:11.374Z,99926.00
2019-02-15T03:28:12.817Z,99926.00
2019-02-15T03:29:14.205Z,99919.00
2019-02-15T03:30:15.620Z,99917.67
2019-02-15T03:31:17.032Z,99913.67
2019-02-15T03:32:19.646Z,99912.48
2019-02-15T03:33:21.098Z,99912.48
2019-02-15T03:34:22.631Z,99913.82
2019-02-15T03:35:24.245Z,99909.48
2019-02-15T03:36:39.626Z,99911.67
2019-02-15T03:37:43.052Z,99906.34
2019-02-15T03:38:46.324Z,99911.67
2019-02-15T03:39:52.806Z,99905.00
2019-02-15T03:40:55.542Z,99903.01
2019-02-15T03:41:57.028Z,99907.01
2019-02-15T03:42:58.471Z,99907.01
2019-02-15T03:43:59.837Z,99914.70
2019-02-15T03:45:01.543Z,99914.70
2019-02-15T03:46:03.637Z,99917.37
2019-02-15T03:47:05.365Z,99930.03
2019-02-15T03:48:06.643Z,99937.55
2019-02-15T03:49:07.920Z,99941.88
2019-02-15T03:50:09.356Z,99941.88
2019-02-15T03:51:10.730Z,99945.37
2019-02-15T03:52:11.963Z,99943.70
2019-02-15T03:53:13.414Z,99944.55
2019-02-15T03:54:14.831Z,99942.03
2019-02-15T03:55:16.166Z,99949.55
2019-02-15T03:56:17.719Z,99950.03
2019-02-15T03:57:19.225Z,99950.03
2019-02-15T03:58:20.583Z,99945.03
2019-02-15T03:59:22.206Z,99943.70
2019-02-15T04:00:23.865Z,99949.73
2019-02-15T04:01:25.214Z,99942.70
2019-02-15T04:02:26.775Z,99950.22
2019-02-15T04:03:28.045Z,99945.37
2019-02-15T04:04:29.465Z,99945.37
2019-02-15T04:05:30.831Z,99943.84
2019-02-15T04:06:32.190Z,99943.84
2019-02-15T04:07:33.605Z,99948.84
2019-02-15T04:08:35.054Z,99947.66
2019-02-15T04:09:36.604Z,99951.17
2019-02-15T04:10:37.865Z,99951.17
2019-02-15T04:11:39.498Z,99951.17
2019-02-15T04:12:41.477Z,99948.52
2019-02-15T04:13:43.045Z,99950.70
2019-02-15T04:14:44.439Z,99948.84
2019-02-15T04:15:45.798Z,99946.70
2019-02-15T04:16:47.281Z,99946.70
2019-02-15T04:17:48.844Z,99955.52
2019-02-15T04:18:50.149Z,99948.52
2019-02-15T04:19:51.638Z,99954.70
2019-02-15T04:20:53.030Z,99956.84
2019-02-15T04:21:54.500Z,99950.18
2019-02-15T04:22:55.896Z,99953.18
2019-02-15T04:23:57.337Z,99948.70
2019-02-15T04:24:58.703Z,99944.22
2019-02-15T04:26:00.310Z,99950.37
2019-02-15T04:27:01.650Z,99951.70
2019-02-15T04:28:03.150Z,99951.70
2019-02-15T04:29:04.630Z,99950.37
2019-02-15T04:30:09.896Z,99950.37
2019-02-15T04:31:11.397Z,99948.55
2019-02-15T04:32:12.841Z,99948.55
2019-02-15T04:33:14.234Z,99945.37
2019-02-15T04:34:15.532Z,99937.03
2019-02-15T04:35:17.108Z,99937.03
2019-02-15T04:36:18.776Z,99937.88
2019-02-15T04:37:20.352Z,99949.37
2019-02-15T04:38:21.830Z,99953.88
2019-02-15T04:39:23.088Z,99948.03
2019-02-15T04:40:24.841Z,99955.89
2019-02-15T04:41:26.331Z,99953.37
2019-02-15T04:42:27.798Z,99945.88
2019-02-15T04:43:29.088Z,99950.70
2019-02-15T04:44:30.540Z,99950.70
2019-02-15T04:45:31.977Z,99946.37
2019-02-15T04:46:33.405Z,99946.37
2019-02-15T04:47:35.041Z,99944.41
2019-02-15T04:48:36.426Z,99944.41
2019-02-15T04:49:37.874Z,99944.73
2019-02-15T04:50:39.321Z,99949.55
2019-02-15T04:51:40.971Z,99951.22
2019-02-15T04:52:42.513Z,99950.25
2019-02-15T04:53:43.945Z,99950.25
2019-02-15T04:54:45.417Z,99948.26
2019-02-15T04:55:47.007Z,99948.26
2019-02-15T04:56:48.410Z,99946.44
2019-02-15T04:57:49.643Z,99944.45
2019-02-15T04:58:51.170Z,99944.45
2019-02-15T04:59:52.670Z,99942.48
2019-02-15T05:00:54.109Z,99949.84
2019-02-15T05:01:57.766Z,99949.48
2019-02-15T05:02:59.310Z,99944.51
2019-02-15T05:04:00.751Z,99944.51
2019-02-15T05:05:02.132Z,99944.70
2019-02-15T05:06:03.845Z,99947.00
2019-02-15T05:07:05.226Z,99947.00
2019-02-15T05:08:08.238Z,99947.17
2019-02-15T05:09:09.647Z,99938.84
2019-02-15T05:10:10.923Z,99938.84
2019-02-15T05:11:12.428Z,99941.52
2019-02-15T05:12:14.330Z,99940.52
2019-02-15T05:13:15.872Z,99947.17
2019-02-15T05:14:17.228Z,99942.84
2019-02-15T05:15:18.663Z,99949.03
2019-02-15T05:16:20.200Z,99949.03
2019-02-15T05:17:21.563Z,99949.03
2019-02-15T05:18:23.052Z,99948.17
2019-02-15T05:19:24.411Z,99954.84
2019-02-15T05:20:26.049Z,99954.84
2019-02-15T05:21:27.735Z,99961.52
2019-02-15T05:22:29.089Z,99960.18
2019-02-15T05:23:30.782Z,99961.52
2019-02-15T05:24:32.369Z,99961.18
2019-02-15T05:25:33.609Z,99965.03
2019-02-15T05:26:35.065Z,99957.18
2019-02-15T05:27:36.397Z,99960.18
2019-02-15T05:28:37.929Z,99960.18
2019-02-15T05:29:39.700Z,99962.18
2019-02-15T05:30:41.127Z,99962.18
2019-02-15T05:31:42.396Z,99959.81
2019-02-15T05:32:43.895Z,99960.66
2019-02-15T05:33:45.244Z,99963.44
2019-02-15T05:34:46.708Z,99967.44
2019-02-15T05:35:48.450Z,99967.44
2019-02-15T05:36:49.801Z,99972.77
2019-02-15T05:37:51.255Z,99977.29
2019-02-15T05:38:52.802Z,99975.11
2019-02-15T05:39:54.472Z,99974.77
2019-02-15T05:40:55.923Z,99981.10
2019-02-15T05:41:57.391Z,99985.59
2019-02-15T05:42:58.675Z,99980.25
2019-02-15T05:44:00.211Z,99989.59
2019-02-15T05:45:04.164Z,99991.41
2019-02-15T05:46:04.839Z,99986.59
2019-02-15T05:47:06.305Z,99986.59
2019-02-15T05:48:07.550Z,99998.06
2019-02-15T05:49:08.779Z,99998.06
2019-02-15T05:50:10.269Z,99995.41
2019-02-15T05:51:11.633Z,100001.73
2019-02-15T05:52:13.202Z,100001.73
2019-02-15T05:53:14.851Z,100002.73
2019-02-15T05:54:16.832Z,99997.73
2019-02-15T05:55:18.342Z,99997.73
2019-02-15T05:56:19.762Z,100001.73
2019-02-15T05:57:21.229Z,100004.91
2019-02-15T05:58:22.802Z,100004.91
2019-02-15T05:59:25.125Z,100001.88
2019-02-15T06:00:36.390Z,100001.88
2019-02-15T06:01:29.956Z,100002.73
2019-02-15T06:02:32.206Z,100002.73
2019-02-15T06:03:33.451Z,100004.55
2019-02-15T06:04:34.844Z,100011.20
2019-02-15T06:05:36.366Z,100013.39
2019-02-15T06:06:37.750Z,100002.25
2019-02-15T06:07:39.203Z,100004.06
2019-02-15T06:08:41.193Z,100006.58
2019-02-15T06:09:42.840Z,100011.06
2019-02-15T06:10:46.401Z,100007.06
2019-02-15T06:11:47.945Z,100007.06
2019-02-15T06:12:49.493Z,100010.25
2019-02-15T06:13:50.911Z,100005.73
2019-02-15T06:14:52.717Z,100009.25
2019-02-15T06:15:54.258Z,100006.58
2019-02-15T06:16:55.606Z,100008.73
2019-02-15T06:17:56.987Z,100013.25
2019-02-15T06:18:58.276Z,100012.40
2019-02-15T06:19:59.783Z,100009.73
2019-02-15T06:21:03.013Z,100018.73
2019-02-15T06:22:04.564Z,100019.06
2019-02-15T06:23:05.926Z,100025.39
2019-02-15T06:24:07.474Z,100017.06
2019-02-15T06:25:08.738Z,100017.06
2019-02-15T06:26:10.126Z,100018.39
2019-02-15T06:27:11.641Z,100020.06
2019-02-15T06:28:13.026Z,100024.54
2019-02-15T06:29:14.583Z,100019.20
2019-02-15T06:30:15.933Z,100018.73
2019-02-15T06:31:17.213Z,100010.58
2019-02-15T06:32:18.778Z,100014.58
2019-02-15T06:33:20.188Z,100016.25
2019-02-15T06:34:21.632Z,100016.25
2019-02-15T06:35:23.055Z,100015.25
2019-02-15T06:36:26.310Z,100023.44
2019-02-15T06:37:27.785Z,100019.95
2019-02-15T06:38:34.709Z,100018.98
2019-02-15T06:39:32.668Z,100018.98
2019-02-15T06:40:34.057Z,100018.47
2019-02-15T06:41:35.513Z,100027.80
2019-02-15T06:42:36.965Z,100022.47
2019-02-15T06:43:38.459Z,100024.14
2019-02-15T06:44:39.839Z,100026.33
2019-02-15T06:45:41.780Z,100026.33
2019-02-15T06:46:43.180Z,100023.51
2019-02-15T06:47:44.586Z,100021.18
2019-02-15T06:48:45.841Z,100027.36
2019-02-15T06:49:47.307Z,100033.03
2019-02-15T06:50:48.775Z,100036.52
2019-02-15T06:51:50.049Z,100030.22
2019-02-15T06:52:51.519Z,100034.22
2019-02-15T06:53:52.992Z,100035.89
2019-02-15T06:54:54.506Z,100042.55
2019-02-15T06:55:56.025Z,100039.55
2019-02-15T06:56:57.556Z,100039.55
2019-02-15T06:57:59.050Z,100035.89
2019-02-15T06:59:19.170Z,100031.03
2019-02-15T07:00:31.472Z,100035.19
2019-02-15T07:01:37.477Z,100035.19
2019-02-15T07:02:40.796Z,100036.03
2019-02-15T07:03:47.122Z,100036.52
2019-02-15T07:04:56.515Z,100035.84
2019-02-15T07:05:57.862Z,100034.84
2019-02-15T07:06:59.274Z,100036.18
2019-02-15T07:08:00.761Z,100037.52
2019-02-15T07:09:04.197Z,100038.52
2019-02-15T07:10:05.959Z,100037.18
2019-02-15T07:11:07.426Z,100037.18
2019-02-15T07:12:08.852Z,100045.52
2019-02-15T07:13:12.407Z,100038.52
2019-02-15T07:14:14.109Z,100039.36
2019-02-15T07:15:15.477Z,100037.03
2019-02-15T07:16:16.957Z,100038.84
2019-02-15T07:17:18.334Z,100037.52
2019-02-15T07:18:19.859Z,100037.52
2019-02-15T07:19:21.526Z,100039.19
2019-02-15T07:20:22.885Z,100032.38
2019-02-15T07:21:24.152Z,100031.03
2019-02-15T07:22:25.591Z,100027.89
2019-02-15T07:23:27.005Z,100028.22
2019-02-15T07:24:28.343Z,100032.89
2019-02-15T07:25:29.948Z,100028.08
2019-02-15T07:26:31.311Z,100030.08
2019-02-15T07:27:32.614Z,100029.08
2019-02-15T07:28:34.001Z,100026.08
2019-02-15T07:29:35.606Z,100025.08
2019-02-15T07:30:36.947Z,100025.92
2019-02-15T07:31:38.243Z,100027.11
2019-02-15T07:32:39.626Z,100027.93
2019-02-15T07:33:41.018Z,100023.93
2019-02-15T07:34:42.290Z,100032.27
2019-02-15T07:35:43.691Z,100033.97
2019-02-15T07:36:44.985Z,100032.12
2019-02-15T07:37:46.606Z,100033.97
2019-02-15T07:38:48.006Z,100029.97
2019-02-15T07:39:49.258Z,100027.63
2019-02-15T07:40:50.844Z,100030.30
2019-02-15T07:41:52.317Z,100031.12
2019-02-15T07:42:53.758Z,100033.30
2019-02-15T07:43:55.307Z,100033.30
2019-02-15T07:44:56.788Z,100031.97
2019-02-15T07:45:58.208Z,100043.45
2019-02-15T07:46:59.950Z,100035.97
2019-02-15T07:48:02.340Z,100035.97
2019-02-15T07:49:04.740Z,100035.12
2019-02-15T07:50:11.245Z,100031.63
2019-02-15T07:51:12.622Z,100033.30
2019-02-15T07:52:14.092Z,100033.30
2019-02-15T07:53:15.550Z,100037.45
2019-02-15T07:54:16.889Z,100036.45
2019-02-15T07:55:18.355Z,100038.30
2019-02-15T07:56:20.048Z,100039.12
2019-02-15T07:57:21.317Z,100045.31
2019-02-15T07:58:22.696Z,100049.30
2019-02-15T07:59:24.196Z,100049.79
2019-02-15T08:00:25.818Z,100047.97
2019-02-15T08:01:27.120Z,100050.64
2019-02-15T08:02:28.557Z,100043.97
2019-02-15T08:03:29.973Z,100043.97
2019-02-15T08:04:31.623Z,100047.97
2019-02-15T08:05:33.009Z,100046.64
2019-02-15T08:06:34.260Z,100045.31
2019-02-15T08:07:35.772Z,100045.31
2019-02-15T08:08:37.365Z,100041.30
2019-02-15T08:09:38.654Z,100046.98
2019-02-15T08:10:40.133Z,100045.31
2019-02-15T08:11:41.800Z,100044.97
2019-02-15T08:12:43.073Z,100044.31
2019-02-15T08:13:44.434Z,100048.30
2019-02-15T08:14:45.927Z,100042.48
2019-02-15T08:15:51.987Z,100042.48
2019-02-15T08:16:50.877Z,100041.16
2019-02-15T08:17:52.740Z,100039.83
2019-02-15T08:18:54.180Z,100045.16
2019-02-15T08:19:55.843Z,100038.97
2019-02-15T08:20:57.233Z,100043.83
2019-02-15T08:21:58.567Z,100044.64
2019-02-15T08:23:00.115Z,100044.64
2019-02-15T08:24:01.357Z,100041.83
2019-02-15T08:25:03.773Z,100039.64
2019-02-15T08:26:05.239Z,100039.64
2019-02-15T08:27:06.629Z,100033.82
2019-02-15T08:28:08.215Z,100033.82
2019-02-15T08:29:09.797Z,100042.31
2019-02-15T08:30:12.941Z,100042.31
2019-02-15T08:31:14.442Z,100035.30
2019-02-15T08:32:16.872Z,100040.64
2019-02-15T08:33:18.500Z,100044.98
2019-02-15T08:34:19.877Z,100044.98
2019-02-15T08:35:21.377Z,100048.02
2019-02-15T08:36:22.741Z,100047.16
2019-02-15T08:37:24.025Z,100047.02
2019-02-15T08:38:27.413Z,100043.02
2019-02-15T08:39:28.704Z,100047.02
2019-02-15T08:40:30.256Z,100046.50
2019-02-15T08:41:31.911Z,100046.50
2019-02-15T08:42:33.189Z,100045.67
2019-02-15T08:43:34.787Z,100050.02
2019-02-15T08:44:36.298Z,100046.50
2019-02-15T08:45:37.589Z,100049.53
2019-02-15T08:46:39.028Z,100049.53
2019-02-15T08:47:41.808Z,100052.69
2019-02-15T08:48:46.366Z,100049.02
2019-02-15T08:49:46.746Z,100049.02
2019-02-15T08:50:48.163Z,100052.53
2019-02-15T08:51:49.706Z,100049.35
2019-02-15T08:52:51.122Z,100051.20
2019-02-15T08:53:52.820Z,100054.69
2019-02-15T08:54:55.321Z,100051.53
2019-02-15T08:55:56.846Z,100053.72
2019-02-15T08:56:58.375Z,100051.05
2019-02-15T08:57:59.813Z,100050.20
2019-02-15T08:59:02.050Z,100047.05
2019-02-15T09:00:07.066Z,100047.87
2019-02-15T09:01:08.600Z,100045.72
2019-02-15T09:02:11.992Z,100048.72
2019-02-15T09:03:13.415Z,100050.05
2019-02-15T09:04:15.009Z,100048.72
2019-02-15T09:05:16.632Z,100048.20
2019-02-15T09:06:18.013Z,100044.20
2019-02-15T09:07:19.345Z,100049.05
2019-02-15T09:08:20.701Z,100048.05
2019-02-15T09:09:22.179Z,100046.38
2019-02-15T09:10:23.463Z,100045.05
2019-02-15T09:11:24.915Z,100042.72
2019-02-15T09:12:26.251Z,100038.72
2019-02-15T09:13:27.639Z,100036.53
2019-02-15T09:14:29.217Z,100036.53
2019-02-15T09:15:30.589Z,100035.56
2019-02-15T09:16:32.107Z,100041.72
2019-02-15T09:17:33.843Z,100045.72
2019-02-15T09:18:35.310Z,100038.05
2019-02-15T09:19:36.733Z,100049.09
2019-02-15T09:20:38.096Z,100042.05
2019-02-15T09:21:39.519Z,100042.05
2019-02-15T09:22:40.851Z,100048.58
2019-02-15T09:23:42.192Z,100041.91
2019-02-15T09:24:43.465Z,100045.75
2019-02-15T09:25:44.736Z,100041.75
2019-02-15T09:26:46.286Z,100041.75
2019-02-15T09:27:52.557Z,100041.27
2019-02-15T09:28:58.566Z,100040.42
2019-02-15T09:30:00.314Z,100052.28
2019-02-15T09:31:01.753Z,100056.77
2019-02-15T09:32:03.213Z,100056.77
2019-02-15T09:33:04.783Z,100048.76
2019-02-15T09:34:06.165Z,100050.09
2019-02-15T09:35:09.814Z,100054.09
2019-02-15T09:36:11.174Z,100045.61
2019-02-15T09:37:12.656Z,100045.61
2019-02-15T09:38:14.085Z,100044.27
2019-02-15T09:39:15.505Z,100041.60
2019-02-15T09:40:17.059Z,100052.95
2019-02-15T09:41:18.423Z,100052.95
2019-02-15T09:42:19.946Z,100048.61
2019-02-15T09:43:21.292Z,100048.61
2019-02-15T09:44:22.668Z,100048.94
2019-02-15T09:45:24.024Z,100043.13
2019-02-15T09:46:25.569Z,100047.94
2019-02-15T09:47:27.964Z,100047.94
2019-02-15T09:48:29.222Z,100045.13
2019-02-15T09:49:30.486Z,100045.13
2019-02-15T09:50:31.844Z,100043.79
2019-02-15T09:51:33.257Z,100044.98
2019-02-15T09:52:36.743Z,100044.98
2019-02-15T09:53:38.234Z,100044.13
2019-02-15T09:54:39.649Z,100044.13
2019-02-15T09:55:41.393Z,100041.64
2019-02-15T09:56:42.747Z,100038.16
2019-02-15T09:57:44.092Z,100044.16
2019-02-15T09:58:45.569Z,100041.97
2019-02-15T09:59:48.167Z,100035.16
2019-02-15T10:00:49.518Z,100035.16
2019-02-15T10:01:50.898Z,100035.00
2019-02-15T10:02:52.533Z,100035.00
2019-02-15T10:03:55.296Z,100033.16
2019-02-15T10:04:57.007Z,100033.16
2019-02-15T10:05:58.558Z,100030.33
2019-02-15T10:07:00.057Z,100027.17
2019-02-15T10:08:01.607Z,100024.84
2019-02-15T10:09:04.451Z,100020.36
2019-02-15T10:10:08.120Z,100017.69
2019-02-15T10:11:09.461Z,100016.69
2019-02-15T10:12:10.965Z,100016.69
2019-02-15T10:13:12.354Z,100016.87
2019-02-15T10:14:13.757Z,100012.53
2019-02-15T10:15:15.067Z,100013.68
2019-02-15T10:16:16.675Z,100013.53
2019-02-15T10:17:18.087Z,100005.52
2019-02-15T10:18:19.606Z,100008.19
2019-02-15T10:19:22.656Z,100008.04
2019-02-15T10:20:24.093Z,100008.04
2019-02-15T10:21:25.388Z,99999.70
2019-02-15T10:22:26.829Z,100004.06
2019-02-15T10:23:28.421Z,99999.21
2019-02-15T10:24:29.842Z,100005.22
2019-02-15T10:25:31.325Z,99996.57
2019-02-15T10:26:32.784Z,99996.57
2019-02-15T10:27:34.576Z,99996.91
2019-02-15T10:28:36.044Z,99990.56
2019-02-15T10:29:37.388Z,99994.56
2019-02-15T10:30:38.634Z,99999.27
2019-02-15T10:31:40.174Z,99992.59
2019-02-15T10:32:41.688Z,99986.28
2019-02-15T10:33:42.910Z,99992.28
2019-02-15T10:34:44.293Z,99994.47
2019-02-15T10:35:45.763Z,99992.13
2019-02-15T10:36:47.030Z,99991.13
2019-02-15T10:37:48.642Z,99987.98
2019-02-15T10:38:49.982Z,99992.80
2019-02-15T10:39:51.361Z,99990.98
2019-02-15T10:40:52.705Z,99994.31
2019-02-15T10:41:54.085Z,99988.97
2019-02-15T10:42:55.547Z,99988.97
2019-02-15T10:43:57.049Z,99990.00
2019-02-15T10:44:58.395Z,99991.33
2019-02-15T10:45:59.629Z,99991.33
2019-02-15T10:47:01.211Z,99984.98
2019-02-15T10:48:02.591Z,99979.80
2019-02-15T10:49:03.970Z,99978.16
2019-02-15T10:50:08.129Z,99978.16
2019-02-15T10:51:09.493Z,99979.31
2019-02-15T10:52:10.802Z,99982.67
2019-02-15T10:53:13.126Z,99978.67
2019-02-15T10:54:14.683Z,99978.67
2019-02-15T10:55:16.186Z,99973.66
2019-02-15T10:56:17.637Z,99977.66
2019-02-15T10:57:19.215Z,99983.34
2019-02-15T10:58:20.601Z,99983.66
2019-02-15T10:59:22.070Z,99983.66
2019-02-15T11:00:23.520Z,99971.16
2019-02-15T11:01:24.989Z,99971.16
2019-02-15T11:02:27.338Z,99966.64
2019-02-15T11:03:28.887Z,99966.64
2019-02-15T11:04:30.355Z,99971.50
2019-02-15T11:05:32.703Z,99968.34
2019-02-15T11:06:34.008Z,99974.17
2019-02-15T11:07:35.420Z,99974.17
2019-02-15T11:08:36.781Z,99967.34
2019-02-15T11:09:38.415Z,99965.15
2019-02-15T11:10:40.115Z,99966.81
2019-02-15T11:11:41.751Z,99966.81
2019-02-15T11:12:43.114Z,99961.48
2019-02-15T11:13:44.498Z,99961.48
2019-02-15T11:14:47.196Z,99963.66
2019-02-15T11:15:48.652Z,99965.84
2019-02-15T11:16:50.004Z,99963.17
2019-02-15T11:17:51.671Z,99963.17
2019-02-15T11:18:53.148Z,99956.98
2019-02-15T11:19:54.593Z,99962.66
2019-02-15T11:20:55.948Z,99955.65
2019-02-15T11:21:57.758Z,99961.32
2019-02-15T11:22:59.158Z,99959.17
2019-02-15T11:24:00.869Z,99959.17
2019-02-15T11:25:03.420Z,99954.64
2019-02-15T11:26:06.244Z,99951.97
2019-02-15T11:27:07.787Z,99949.30
2019-02-15T11:28:09.246Z,99951.97
2019-02-15T11:29:10.598Z,99948.48
2019-02-15T11:30:15.526Z,99948.48
2019-02-15T11:31:17.123Z,99948.48
2019-02-15T11:32:18.571Z,99943.62
2019-02-15T11:33:19.901Z,99944.12
2019-02-15T11:34:21.449Z,99944.12
2019-02-15T11:35:22.898Z,99948.97
2019-02-15T11:36:24.151Z,99933.95
2019-02-15T11:37:25.587Z,99937.95
2019-02-15T11:38:28.113Z,99934.95
2019-02-15T11:39:29.499Z,99928.59
2019-02-15T11:40:30.918Z,99936.30
2019-02-15T11:41:34.127Z,99928.61
2019-02-15T11:42:35.603Z,99925.94
2019-02-15T11:43:37.051Z,99929.09
2019-02-15T11:44:38.611Z,99934.77
2019-02-15T11:45:40.231Z,99928.61
2019-02-15T11:46:41.852Z,99927.28
2019-02-15T11:47:43.196Z,99927.28
2019-02-15T11:48:44.757Z,99922.09
2019-02-15T11:49:46.332Z,99924.27
2019-02-15T11:50:48.065Z,99925.42
2019-02-15T11:51:49.455Z,99919.27
2019-02-15T11:52:51.045Z,99923.11
2019-02-15T11:53:52.427Z,99916.59
2019-02-15T11:54:53.779Z,99919.44
2019-02-15T11:55:55.458Z,99924.94
2019-02-15T11:56:59.354Z,99922.11
2019-02-15T11:58:00.728Z,99917.58
2019-02-15T11:59:02.185Z,99918.44
2019-02-15T12:00:13.941Z,99915.24
2019-02-15T12:01:10.833Z,99919.25